createdAt,value
2022-08-09T00:00:35.624Z,48.23
2022-08-09T00:06:17.559Z,48.30
2022-08-09T00:10:51.842Z,51.13
2022-08-09T00:15:59.091Z,50.47
2022-08-09T00:21:05.216Z,49.70
2022-08-09T00:26:13.750Z,49.93
2022-08-09T00:32:00.055Z,48.63
2022-08-09T00:36:30.725Z,48.23
2022-08-09T00:46:57.208Z,48.00
2022-08-09T00:51:55.939Z,47.83
2022-08-09T00:56:56.765Z,48.13
2022-08-09T01:02:03.528Z,48.13
2022-08-09T01:17:30.500Z,48.10
2022-08-09T01:22:56.733Z,47.87
2022-08-09T01:28:04.088Z,48.00
2022-08-09T01:33:11.768Z,48.37
2022-08-09T01:38:23.421Z,49.17
2022-08-09T01:43:28.930Z,48.57
2022-08-09T01:48:38.084Z,47.57
2022-08-09T01:53:45.414Z,47.97
2022-08-09T01:58:54.864Z,47.47
2022-08-09T02:04:02.895Z,48.60
2022-08-09T02:09:10.379Z,48.17
2022-08-09T02:14:25.460Z,48.67
2022-08-09T02:19:34.853Z,47.90
2022-08-09T02:24:37.000Z,47.70
2022-08-09T02:29:48.489Z,47.53
2022-08-09T02:34:59.836Z,47.23
2022-08-09T02:40:10.357Z,46.97
2022-08-09T02:45:20.015Z,52.27
2022-08-09T02:50:35.773Z,48.07
2022-08-09T02:55:57.464Z,47.37
2022-08-09T03:00:58.556Z,47.20
2022-08-09T03:06:00.209Z,47.07
2022-08-09T03:11:06.877Z,46.60
2022-08-09T03:16:17.217Z,47.00
2022-08-09T03:21:25.888Z,46.77
2022-08-09T03:26:34.407Z,46.67
2022-08-09T03:31:42.747Z,46.70
2022-08-09T03:36:59.777Z,46.57
2022-08-09T03:42:06.689Z,46.90
2022-08-09T03:47:02.933Z,47.13
2022-08-09T03:52:11.547Z,47.20
2022-08-09T03:57:20.798Z,47.00
2022-08-09T04:02:30.720Z,46.53
2022-08-09T04:07:53.506Z,46.37
2022-08-09T04:12:51.564Z,46.77
2022-08-09T04:17:57.768Z,46.70
2022-08-09T04:23:09.694Z,47.27
2022-08-09T04:28:12.506Z,46.43
2022-08-09T04:33:18.153Z,46.43
2022-08-09T04:38:23.164Z,47.30
2022-08-09T04:43:28.864Z,48.08
2022-08-09T04:48:35.784Z,47.88
2022-08-09T04:53:43.679Z,47.17
2022-08-09T04:58:48.758Z,47.07
2022-08-09T05:03:56.827Z,47.83
2022-08-09T05:09:02.893Z,47.93
2022-08-09T05:14:08.106Z,48.37
2022-08-09T05:19:18.222Z,48.42
2022-08-09T05:24:24.139Z,49.40
2022-08-09T05:29:31.196Z,49.33
2022-08-09T05:34:36.221Z,49.35
2022-08-09T05:39:44.190Z,50.20
2022-08-09T05:44:52.175Z,49.57
2022-08-09T05:50:31.137Z,49.13
2022-08-09T05:55:07.247Z,49.47
2022-08-09T06:05:18.278Z,48.42
2022-08-09T06:10:27.129Z,49.33
2022-08-09T06:15:32.059Z,49.67
2022-08-09T06:20:37.477Z,49.50
2022-08-09T06:30:48.364Z,49.63
2022-08-09T06:35:57.185Z,49.37
2022-08-09T06:41:01.142Z,49.70
2022-08-09T06:46:10.905Z,49.40
2022-08-09T06:51:16.074Z,50.53
2022-08-09T06:56:30.510Z,50.15
2022-08-09T07:01:35.613Z,50.60
2022-08-09T07:06:37.191Z,51.23
2022-08-09T07:11:52.297Z,51.75
2022-08-09T07:16:55.307Z,51.73
2022-08-09T07:21:59.768Z,51.07
2022-08-09T07:27:04.233Z,50.28
2022-08-09T07:32:11.137Z,50.30
2022-08-09T07:37:16.881Z,50.55
2022-08-09T07:42:32.379Z,50.73
2022-08-09T07:47:32.132Z,50.57
2022-08-09T07:52:40.736Z,51.17
2022-08-09T07:57:49.447Z,51.23
2022-08-09T08:02:55.210Z,51.20
2022-08-09T08:08:44.351Z,51.80
2022-08-09T08:13:11.533Z,51.85
2022-08-09T08:18:18.480Z,51.07
2022-08-09T08:23:27.300Z,51.00
2022-08-09T08:28:33.112Z,50.50
2022-08-09T08:33:40.651Z,50.83
2022-08-09T08:38:49.909Z,50.47
2022-08-09T08:44:01.996Z,50.53
2022-08-09T08:49:03.642Z,50.95
2022-08-09T08:54:20.331Z,51.63
2022-08-09T08:59:20.554Z,51.70
2022-08-09T09:04:41.293Z,50.87
2022-08-09T09:10:02.302Z,51.67
2022-08-09T09:14:49.805Z,51.20
2022-08-09T09:19:56.686Z,51.23
2022-08-09T09:26:02.377Z,51.40
2022-08-09T09:35:21.519Z,51.97
2022-08-09T09:40:46.135Z,51.87
2022-08-09T09:46:38.861Z,51.30
2022-08-09T09:51:03.551Z,52.30
2022-08-09T09:56:20.141Z,51.70
2022-08-09T10:01:37.306Z,51.20
2022-08-09T10:06:42.846Z,50.60
2022-08-09T10:12:00.527Z,51.03
2022-08-09T10:17:11.405Z,51.13
2022-08-09T10:22:02.843Z,50.80
2022-08-09T10:27:10.388Z,50.90
2022-08-09T10:37:25.264Z,50.58
2022-08-09T10:42:32.999Z,50.97
2022-08-09T10:48:14.248Z,51.00
2022-08-09T10:53:10.460Z,51.10
2022-08-09T10:58:35.348Z,51.10
2022-08-09T11:03:50.667Z,51.00
2022-08-09T11:08:54.958Z,51.28
2022-08-09T11:14:44.106Z,51.10
2022-08-09T11:20:10.080Z,51.07
2022-08-09T11:25:13.217Z,51.10
2022-08-09T11:30:34.312Z,50.98
2022-08-09T11:35:49.615Z,51.10
2022-08-09T11:40:54.829Z,52.07
2022-08-09T11:46:02.905Z,59.38
2022-08-09T11:52:48.826Z,51.65
2022-08-09T11:56:21.267Z,52.13
2022-08-09T12:02:00.888Z,51.60
2022-08-09T12:12:04.210Z,51.58
2022-08-09T12:17:27.687Z,52.00
2022-08-09T12:22:24.239Z,52.08
2022-08-09T12:29:13.567Z,52.57
2022-08-09T12:32:40.831Z,52.43
2022-08-09T12:37:51.468Z,51.47
2022-08-09T12:42:55.247Z,51.93
2022-08-09T12:48:01.661Z,52.33
2022-08-09T12:53:18.204Z,52.10
2022-08-09T12:58:24.265Z,52.20
2022-08-09T13:03:56.743Z,52.37
2022-08-09T13:08:40.867Z,52.07
2022-08-09T13:14:37.381Z,51.95
2022-08-09T13:18:54.594Z,51.80
2022-08-09T13:24:44.720Z,52.30
2022-08-09T13:29:28.641Z,52.37
2022-08-09T13:34:32.337Z,52.00
2022-08-09T13:41:49.628Z,51.77
2022-08-09T13:44:48.667Z,51.53
2022-08-09T13:49:57.782Z,51.80
2022-08-09T13:55:05.187Z,51.63
2022-08-09T14:00:16.391Z,51.92
2022-08-09T14:05:58.426Z,51.50
2022-08-09T14:10:37.224Z,51.77
2022-08-09T14:16:09.786Z,51.88
2022-08-09T14:20:42.623Z,51.57
2022-08-09T14:25:51.620Z,51.67
2022-08-09T14:30:57.642Z,51.90
2022-08-09T14:36:19.479Z,52.23
2022-08-09T14:41:34.872Z,52.00
2022-08-09T14:46:58.274Z,51.83
2022-08-09T14:51:24.341Z,51.60
2022-08-09T14:56:30.278Z,51.43
2022-08-09T15:01:36.244Z,50.83
2022-08-09T15:06:41.473Z,51.27
2022-08-09T15:11:50.237Z,50.70
2022-08-09T15:16:56.325Z,51.13
2022-08-09T15:22:03.590Z,51.03
2022-08-09T15:27:09.185Z,51.53
2022-08-09T15:32:29.414Z,51.30
2022-08-09T15:37:37.372Z,50.97
2022-08-09T15:42:44.897Z,51.00
2022-08-09T15:48:03.161Z,51.43
2022-08-09T15:53:06.928Z,52.43
2022-08-09T15:58:05.262Z,51.60
2022-08-09T16:03:26.619Z,51.00
2022-08-09T16:08:30.733Z,50.87
2022-08-09T16:14:02.753Z,50.98
2022-08-09T16:18:35.698Z,65.60
2022-08-09T16:23:41.519Z,60.20
2022-08-09T16:28:47.955Z,56.33
2022-08-09T16:33:56.215Z,59.87
2022-08-09T16:39:03.303Z,52.47
2022-08-09T16:44:10.445Z,52.15
2022-08-09T16:50:28.374Z,50.87
2022-08-09T16:54:34.253Z,50.85
2022-08-09T16:59:34.642Z,50.73
2022-08-09T17:04:39.322Z,51.10
2022-08-09T17:09:47.250Z,50.70
2022-08-09T17:14:58.212Z,50.80
2022-08-09T17:20:29.797Z,50.53
2022-08-09T17:25:11.636Z,50.93
2022-08-09T17:30:17.484Z,51.57
2022-08-09T17:35:24.550Z,50.90
2022-08-09T17:40:32.700Z,50.53
2022-08-09T17:46:01.997Z,50.33
2022-08-09T17:50:48.614Z,50.63
2022-08-09T17:56:00.035Z,50.95
2022-08-09T18:01:01.317Z,50.53
2022-08-09T18:06:14.848Z,50.90
2022-08-09T18:11:16.314Z,50.73
2022-08-09T18:16:29.238Z,50.23
2022-08-09T18:21:40.974Z,50.97
2022-08-09T18:26:46.470Z,50.80
2022-08-09T18:31:55.582Z,50.77
2022-08-09T18:36:54.441Z,51.10
2022-08-09T18:42:02.987Z,51.03
2022-08-09T18:47:16.687Z,50.20
2022-08-09T18:52:34.482Z,50.83
2022-08-09T18:57:43.133Z,50.90
2022-08-09T19:02:38.937Z,51.25
2022-08-09T19:07:59.021Z,51.35
2022-08-09T19:13:08.860Z,50.80
2022-08-09T19:18:00.426Z,50.83
2022-08-09T19:23:06.686Z,50.28
2022-08-09T19:28:16.355Z,50.98
2022-08-09T19:33:23.616Z,50.73
2022-08-09T19:38:30.091Z,50.67
2022-08-09T19:44:01.756Z,52.73
2022-08-09T19:49:02.162Z,51.63
2022-08-09T19:53:50.641Z,51.50
2022-08-09T19:59:18.298Z,50.10
2022-08-09T20:04:17.067Z,49.93
2022-08-09T20:09:44.535Z,50.92
2022-08-09T20:14:21.940Z,50.60
2022-08-09T20:19:42.950Z,50.85
2022-08-09T20:24:36.280Z,49.97
2022-08-09T20:29:44.263Z,49.87
2022-08-09T20:34:50.951Z,50.10
2022-08-09T20:40:16.501Z,49.93
2022-08-09T20:45:59.709Z,49.60
2022-08-09T20:50:15.620Z,50.67
2022-08-09T20:55:20.684Z,49.43
2022-08-09T21:00:31.384Z,49.23
2022-08-09T21:05:57.206Z,50.03
2022-08-09T21:10:43.928Z,49.43
2022-08-09T21:15:55.210Z,49.53
2022-08-09T21:20:59.049Z,50.10
2022-08-09T21:26:05.076Z,50.67
2022-08-09T21:31:16.110Z,51.90
2022-08-09T21:36:23.324Z,51.46
2022-08-09T21:42:00.281Z,51.47
2022-08-09T21:46:38.552Z,52.13
2022-08-09T21:51:44.079Z,51.30
2022-08-09T21:56:54.345Z,52.30
2022-08-09T22:02:00.697Z,51.83
2022-08-09T22:07:04.598Z,51.93
2022-08-09T22:17:16.374Z,51.37
2022-08-09T22:22:24.858Z,49.93
2022-08-09T22:27:31.232Z,50.60
2022-08-09T22:32:38.545Z,50.70
2022-08-09T22:37:44.111Z,50.40
2022-08-09T22:42:49.170Z,50.67
2022-08-09T22:48:14.399Z,50.37
2022-08-09T22:53:03.808Z,50.77
2022-08-09T22:58:08.935Z,50.60
2022-08-09T23:03:16.549Z,50.50
2022-08-09T23:08:41.670Z,50.03
2022-08-09T23:13:50.187Z,50.60
2022-08-09T23:18:55.635Z,50.10
2022-08-09T23:24:06.605Z,50.03
2022-08-09T23:29:12.122Z,50.23
2022-08-09T23:34:17.431Z,50.00
2022-08-09T23:44:46.924Z,49.80
2022-08-09T23:49:52.433Z,49.93
2022-08-09T23:54:57.980Z,50.27
